• Join FlightAware (Why Join?)
  • Login
  • US Flag 
06:18AM EDT


 

Airport Tracker/Info


-or-


 

Live Flight TrackerFlight Track Log ✈ N400PU ✈ 25-Sep-2013 ✈ KCHO - KAOH

Flight Track Log - Related Links

Times and Time Zones

All times are in EDT time to prevent confusion due to time zone crossing. See the N400PU flight status page for this flight to view local times or setup timezone preferences in your user account.

Time Position Orientation Groundspeed Altitude Reporting Facility
EDT Latitude Longitude Course Direction KTS MPH feet Rate Location/Type
04:02PM 38.1833 -78.4167 303° West 214 246 2,600  Level Potomac TRACON
04:03PM 38.2386 -78.3914 20° North 242 278 4,100 1,440 Climbing Washington Center
04:04PM 38.2836 -78.4300 326° Northwest 242 278 5,500 2,280 Climbing Washington Center
04:05PM 38.3233 -78.5136 301° West 257 296 8,700 1,800 Climbing Washington Center
04:06PM 38.3628 -78.5997 300° West 269 310 9,100 1,140 Climbing Washington Center
04:07PM 38.4044 -78.6889 301° West 281 323 11,000 2,100 Climbing Washington Center
04:08PM 38.4335 -79.0429 303° West  Level Estimated
04:08PM 38.4500 -78.7836 302° West 301 346 13,400  Level Washington Center
04:09PM 38.4911 -78.8756 300° West 301 346 15,900 1,800 Climbing Washington Center
04:10PM 38.5108 -78.9958 282° West 320 368 17,000 720 Climbing Washington Center
04:11PM 38.5281 -79.1242 280° West 343 395 17,400 1,080 Climbing Washington Center
04:12PM 38.5742 -79.2486 295° West 375 432 19,200 2,040 Climbing Washington Center
04:13PM 38.6253 -79.3519 302° West 368 423 21,500 2,280 Climbing Washington Center
04:14PM 38.6683 -79.4392 302° West 347 399 23,800 2,160 Climbing Washington Center
04:15PM 38.7153 -79.5403 301° West 333 383 25,800 1,860 Climbing Washington Center
04:16PM 38.7619 -79.6386 301° West 333 383 27,600 1,860 Climbing Washington Center
04:17PM 38.8144 -79.7506 301° West 328 377 29,700 1,140 Climbing Washington Center
04:18PM 38.8647 -79.8603 301° West 333 383 30,000 120 Climbing Washington Center
04:19PM 38.9056 -79.9453 302° West 383 441 30,000  Level Indianapolis Center
04:20PM 38.9639 -80.0686 301° West 409 471 30,000  Level Indianapolis Center
04:21PM 39.0236 -80.1969 301° West 409 471 30,000  Level Indianapolis Center
04:22PM 39.0819 -80.3233 301° West 411 473 30,000  Level Indianapolis Center
04:23PM 39.1528 -80.4753 301° West 413 475 30,000 780 Level Indianapolis Center
04:25PM 39.2333 -80.6497 301° West 403 464 32,000 780 Climbing Indianapolis Center
04:26PM 39.2892 -80.7697 301° West 393 452 32,000  Level Indianapolis Center
04:27PM 39.3469 -80.8964 301° West 408 470 32,000  Level Indianapolis Center
04:28PM 39.4058 -81.0253 301° West 415 478 32,000  Level Indianapolis Center
04:29PM 39.4781 -81.1864 300° West 432 497 32,000  Level Indianapolis Center
04:30PM 39.5403 -81.3206 301° West 436 502 32,000  Level Indianapolis Center
04:31PM 39.6008 -81.4569 300° West 438 504 32,000  Level Indianapolis Center
04:32PM 39.6625 -81.5950 300° West 442 509 32,000  Level Indianapolis Center
04:33PM 39.7214 -81.7264 300° West 441 507 32,000  Level Indianapolis Center
04:34PM 39.7958 -81.8928 300° West 445 512 32,000 -840 Level Indianapolis Center
04:35PM 39.8572 -82.0322 300° West 446 513 30,300 -1,860 Descending Indianapolis Center
04:36PM 39.9153 -82.1639 300° West 427 491 28,200 -1,980 Descending Indianapolis Center
04:37PM 39.9717 -82.2917 300° West 413 475 26,200 -1,980 Descending Indianapolis Center
04:38PM 40.0269 -82.4206 299° West 409 471 24,200 -2,280 Descending Indianapolis Center
04:39PM 40.0964 -82.5803 300° West 421 484 21,500 -2,460 Descending Indianapolis Center
04:40PM 40.1525 -82.7119 299° West 419 482 19,200 -2,220 Descending Indianapolis Center
04:41PM 40.2075 -82.8381 300° West 406 467 17,000 -1,560 Descending Indianapolis Center
04:42PM 40.2581 -82.9567 299° West 384 442 16,000 -1,080 Descending Indianapolis Center
04:43PM 40.3086 -83.0747 299° West 375 432 14,800 -1,560 Descending Indianapolis Center
04:44PM 40.3369 -83.1450 298° West 371 427 13,700 -2,160 Descending Indianapolis Center
04:44PM 40.3686 -83.2150 301° West 371 427 12,600 -2,160 Descending Indianapolis Center
04:45PM 40.4036 -83.3017 298° West 334 384 10,900 -2,040 Descending Indianapolis Center
04:45PM 40.4139 -83.3236 302° West 348 400 10,500 -1,800 Descending Indianapolis Center
04:46PM 40.4517 -83.4139 299° West 294 338 8,500 -1,920 Descending Indianapolis Center
04:48PM 40.4889 -83.5003 300° West 278 320 6,600 -1,740 Descending Indianapolis Center
04:49PM 40.5242 -83.5850 299° West 270 311 5,000 -1,320 Descending Indianapolis Center
04:50PM 40.5664 -83.6883 298° West 268 308 3,900 -1,020 Descending Indianapolis Center
04:51PM 40.6011 -83.7719 299° West 266 306 3,000 -480 Descending Indianapolis Center
04:52PM 40.6297 -83.8425 298° West 241 277 3,000  Level Indianapolis Center